Time;durP1;ratioP1;P1;durP2;ratioP2;P2;SDS_P1;SDS_P2;PMS_P1;PMS_P2;Temp;Humidity;BMP_temperature;BMP_pressure;BME280_temperature;BME280_humidity;BME280_pressure;Samples;Min_cycle;Max_cycle;Signal;HPM_P1;HPM_P2
2020/12/31 00:00:49;;;;;;;11.90;7.83;;;;;;;;;;5057145;28;20839;-71
2020/12/31 00:03:16;;;;;;;12.03;8.40;;;;;;;;;;5057674;28;20452;-70
2020/12/31 00:05:44;;;;;;;10.37;7.43;;;;;;;;;;5057025;28;20457;-70
2020/12/31 00:08:11;;;;;;;11.20;7.90;;;;;;;;;;5057332;28;20439;-70
2020/12/31 00:10:38;;;;;;;11.20;8.17;;;;;;;;;;5057598;28;20476;-70
2020/12/31 00:13:05;;;;;;;10.53;7.50;;;;;;;;;;5057231;28;20436;-70
2020/12/31 00:15:33;;;;;;;11.67;8.13;;;;;;;;;;5057366;28;20548;-70
2020/12/31 00:18:00;;;;;;;11.57;7.93;;;;;;;;;;5057473;28;20454;-70
2020/12/31 00:20:27;;;;;;;11.33;7.17;;;;;;;;;;5056791;28;20784;-70
2020/12/31 00:22:54;;;;;;;10.87;7.40;;;;;;;;;;5057255;28;20480;-71
2020/12/31 00:25:21;;;;;;;10.30;7.43;;;;;;;;;;5057331;28;20474;-70
2020/12/31 00:27:48;;;;;;;10.03;7.17;;;;;;;;;;5057127;28;20469;-70
2020/12/31 00:30:16;;;;;;;12.77;7.53;;;;;;;;;;5057089;28;20445;-70
2020/12/31 00:32:45;;;;;;;8.03;7.07;;;;;;;;;;5057356;28;20442;-70
2020/12/31 00:35:13;;;;;;;10.67;7.57;;;;;;;;;;5056972;28;21047;-70
2020/12/31 00:37:40;;;;;;;10.23;7.53;;;;;;;;;;5057189;28;20533;-70
2020/12/31 00:40:07;;;;;;;10.10;7.90;;;;;;;;;;5057281;28;20556;-70
2020/12/31 00:42:34;;;;;;;11.23;7.20;;;;;;;;;;5060849;28;20572;-70
2020/12/31 00:45:01;;;;;;;11.23;6.87;;;;;;;;;;5060860;28;20469;-70
2020/12/31 00:47:28;;;;;;;10.67;7.53;;;;;;;;;;5060725;28;20449;-70
2020/12/31 00:49:56;;;;;;;12.73;8.20;;;;;;;;;;5060361;28;20455;-70
2020/12/31 00:52:23;;;;;;;10.70;7.10;;;;;;;;;;5060761;28;20441;-70
2020/12/31 00:54:50;;;;;;;12.17;7.93;;;;;;;;;;5060533;28;20872;-70
2020/12/31 00:57:17;;;;;;;10.87;7.43;;;;;;;;;;5060519;28;20477;-70
2020/12/31 00:59:43;;;;;;;10.10;7.17;;;;;;;;;;5060558;28;20453;-70
2020/12/31 01:02:10;;;;;;;10.93;7.37;;;;;;;;;;5060477;28;20487;-70
2020/12/31 01:04:38;;;;;;;10.33;7.30;;;;;;;;;;5060376;28;20460;-70
2020/12/31 01:07:06;;;;;;;9.13;6.73;;;;;;;;;;5060231;28;20449;-70
2020/12/31 01:09:33;;;;;;;11.93;7.30;;;;;;;;;;5060486;28;20528;-70
2020/12/31 01:12:03;;;;;;;12.10;7.60;;;;;;;;;;5060069;28;20477;-70
2020/12/31 01:14:29;;;;;;;11.80;7.53;;;;;;;;;;5060075;28;20901;-71
2020/12/31 01:16:56;;;;;;;12.87;7.67;;;;;;;;;;5060287;28;20540;-70
2020/12/31 01:19:23;;;;;;;10.30;7.30;;;;;;;;;;5060207;28;20459;-70
2020/12/31 01:21:50;;;;;;;11.17;7.53;;;;;;;;;;5059852;28;20485;-70
2020/12/31 01:24:18;;;;;;;11.50;7.77;;;;;;;;;;5060005;28;21054;-70
2020/12/31 01:26:45;;;;;;;11.63;7.77;;;;;;;;;;5059799;28;20461;-70
2020/12/31 01:29:12;;;;;;;10.77;6.83;;;;;;;;;;5060153;28;20981;-70
2020/12/31 01:31:39;;;;;;;10.20;7.13;;;;;;;;;;5060058;28;20463;-70
2020/12/31 01:34:06;;;;;;;9.93;7.30;;;;;;;;;;5059662;28;20528;-70
2020/12/31 01:36:33;;;;;;;10.03;6.97;;;;;;;;;;5059428;28;20548;-70
2020/12/31 01:39:01;;;;;;;7.47;6.30;;;;;;;;;;5059846;28;20433;-70
2020/12/31 01:41:29;;;;;;;9.07;6.57;;;;;;;;;;5059656;28;20517;-70
2020/12/31 01:44:06;;;;;;;12.23;7.70;;;;;;;;;;5059706;28;20454;-70
2020/12/31 01:46:33;;;;;;;11.13;7.23;;;;;;;;;;5059700;28;20475;-70
2020/12/31 01:49:01;;;;;;;10.93;7.00;;;;;;;;;;5059562;28;20451;-70
2020/12/31 01:51:29;;;;;;;9.57;6.60;;;;;;;;;;5058980;28;20996;-70
2020/12/31 01:53:56;;;;;;;10.23;6.83;;;;;;;;;;5059680;28;20460;-70
2020/12/31 01:56:27;;;;;;;8.43;6.77;;;;;;;;;;5059610;28;20549;-70
2020/12/31 01:58:55;;;;;;;10.83;7.43;;;;;;;;;;5059544;28;20446;-70
2020/12/31 02:01:22;;;;;;;10.43;6.67;;;;;;;;;;5059406;28;20487;-69
2020/12/31 02:03:49;;;;;;;8.73;6.53;;;;;;;;;;5059373;28;20449;-70
2020/12/31 02:06:16;;;;;;;9.80;7.83;;;;;;;;;;5059241;28;20456;-71
2020/12/31 02:08:44;;;;;;;10.77;6.93;;;;;;;;;;5059341;28;20441;-70
2020/12/31 02:11:12;;;;;;;10.27;6.80;;;;;;;;;;5059288;28;20980;-70
2020/12/31 02:13:39;;;;;;;10.87;6.77;;;;;;;;;;5059045;28;20483;-70
2020/12/31 02:16:10;;;;;;;10.10;6.77;;;;;;;;;;5058875;28;20465;-70
2020/12/31 02:18:48;;;;;;;9.17;5.97;;;;;;;;;;5059201;28;20451;-70
2020/12/31 02:21:17;;;;;;;8.33;6.27;;;;;;;;;;5058820;28;20553;-70
2020/12/31 02:23:45;;;;;;;9.70;6.80;;;;;;;;;;5059066;28;20456;-70
2020/12/31 02:26:13;;;;;;;11.17;6.87;;;;;;;;;;5059029;28;20457;-70
2020/12/31 02:28:39;;;;;;;9.17;6.53;;;;;;;;;;5058857;28;20811;-70
2020/12/31 02:31:07;;;;;;;7.57;6.27;;;;;;;;;;5058873;28;20560;-70
2020/12/31 02:33:34;;;;;;;10.80;6.67;;;;;;;;;;5058574;28;20449;-70
2020/12/31 02:36:01;;;;;;;8.97;5.40;;;;;;;;;;5058283;28;20511;-70
2020/12/31 02:38:28;;;;;;;9.67;6.27;;;;;;;;;;5058410;28;20465;-70
2020/12/31 02:40:56;;;;;;;9.47;6.87;;;;;;;;;;5058498;28;20524;-70
2020/12/31 02:43:23;;;;;;;9.80;5.77;;;;;;;;;;5058716;28;20451;-70
2020/12/31 02:45:50;;;;;;;10.27;6.17;;;;;;;;;;5058303;28;20469;-70
2020/12/31 02:48:17;;;;;;;8.87;6.63;;;;;;;;;;5045398;28;20528;-70
2020/12/31 02:50:44;;;;;;;9.53;7.00;;;;;;;;;;5058201;28;20438;-70
2020/12/31 02:53:11;;;;;;;9.63;6.40;;;;;;;;;;5058630;28;20441;-70
2020/12/31 02:55:38;;;;;;;11.37;6.77;;;;;;;;;;5058381;28;20550;-70
2020/12/31 02:58:05;;;;;;;7.03;5.63;;;;;;;;;;5058394;28;20511;-70
2020/12/31 03:00:32;;;;;;;11.10;5.87;;;;;;;;;;5057962;28;20782;-70
2020/12/31 03:02:59;;;;;;;9.97;6.63;;;;;;;;;;5058073;28;20564;-70
2020/12/31 03:05:26;;;;;;;12.17;6.60;;;;;;;;;;5057585;28;20507;-70
2020/12/31 03:07:53;;;;;;;8.77;6.43;;;;;;;;;;5058152;28;20964;-70
2020/12/31 03:10:20;;;;;;;9.97;6.47;;;;;;;;;;5057994;28;20533;-70
2020/12/31 03:12:47;;;;;;;7.47;5.87;;;;;;;;;;5058113;28;20435;-70
2020/12/31 03:15:17;;;;;;;8.43;5.90;;;;;;;;;;5057822;28;20574;-70
2020/12/31 03:17:43;;;;;;;9.27;6.20;;;;;;;;;;5058180;28;20441;-70
2020/12/31 03:20:10;;;;;;;7.30;5.70;;;;;;;;;;5057649;28;20466;-70
2020/12/31 03:22:37;;;;;;;7.90;5.37;;;;;;;;;;5058044;28;20576;-70
2020/12/31 03:25:05;;;;;;;8.33;6.03;;;;;;;;;;5057681;28;21063;-70
2020/12/31 03:27:32;;;;;;;7.70;5.43;;;;;;;;;;5057705;28;20492;-70
2020/12/31 03:29:59;;;;;;;8.03;5.40;;;;;;;;;;5057683;28;20455;-70
2020/12/31 03:32:27;;;;;;;9.93;5.93;;;;;;;;;;5057714;28;20444;-70
2020/12/31 03:34:54;;;;;;;7.30;5.40;;;;;;;;;;5057477;28;20478;-70
2020/12/31 03:37:24;;;;;;;10.10;4.47;;;;;;;;;;5057663;28;20483;-70
2020/12/31 03:39:51;;;;;;;6.43;4.97;;;;;;;;;;5058116;28;20476;-70
2020/12/31 03:42:18;;;;;;;8.30;5.40;;;;;;;;;;5057555;28;20570;-70
2020/12/31 03:44:44;;;;;;;6.83;4.90;;;;;;;;;;5057411;28;20976;-70
2020/12/31 03:47:12;;;;;;;7.87;4.93;;;;;;;;;;5057829;28;20453;-70
2020/12/31 03:49:40;;;;;;;6.57;4.87;;;;;;;;;;5057331;28;20440;-70
2020/12/31 03:52:07;;;;;;;6.73;5.20;;;;;;;;;;5057817;28;20446;-70
2020/12/31 03:54:34;;;;;;;7.17;5.00;;;;;;;;;;5057657;28;20493;-70
2020/12/31 03:57:01;;;;;;;6.27;4.93;;;;;;;;;;5057864;28;20453;-70
2020/12/31 03:59:28;;;;;;;8.10;5.13;;;;;;;;;;5057661;28;20445;-70
2020/12/31 04:01:55;;;;;;;9.63;4.70;;;;;;;;;;5057368;28;20535;-70
2020/12/31 04:04:22;;;;;;;6.13;4.37;;;;;;;;;;5057547;28;20469;-70
2020/12/31 04:06:50;;;;;;;6.67;4.73;;;;;;;;;;5057239;28;20456;-69
2020/12/31 04:09:17;;;;;;;7.77;4.50;;;;;;;;;;5059037;28;20805;-70
2020/12/31 04:11:43;;;;;;;7.63;5.00;;;;;;;;;;5058975;28;20451;-70
2020/12/31 04:14:10;;;;;;;5.53;4.10;;;;;;;;;;5058912;28;21047;-70
2020/12/31 04:16:37;;;;;;;7.67;4.57;;;;;;;;;;5063544;28;20458;-71
2020/12/31 04:19:05;;;;;;;4.50;4.10;;;;;;;;;;5063920;28;20908;-71
2020/12/31 04:21:32;;;;;;;6.80;4.67;;;;;;;;;;5062258;28;20485;-70
2020/12/31 04:23:59;;;;;;;4.20;3.80;;;;;;;;;;5061795;28;20441;-70
2020/12/31 04:26:26;;;;;;;6.70;4.07;;;;;;;;;;5061540;28;20459;-70
2020/12/31 04:28:53;;;;;;;4.67;3.87;;;;;;;;;;5061560;28;20532;-70
2020/12/31 04:31:20;;;;;;;6.30;3.97;;;;;;;;;;5061082;28;20992;-70
2020/12/31 04:33:47;;;;;;;5.63;4.13;;;;;;;;;;5061241;28;20540;-70
2020/12/31 04:36:14;;;;;;;4.87;3.80;;;;;;;;;;5060815;28;20503;-70
2020/12/31 04:38:41;;;;;;;5.17;3.80;;;;;;;;;;5060869;28;20475;-69
2020/12/31 04:41:09;;;;;;;5.93;3.60;;;;;;;;;;5060550;28;20477;-70
2020/12/31 04:43:36;;;;;;;4.93;3.20;;;;;;;;;;5060802;28;20820;-70
2020/12/31 04:46:05;;;;;;;4.17;3.17;;;;;;;;;;5060778;28;20480;-69
2020/12/31 04:48:38;;;;;;;3.57;3.23;;;;;;;;;;5061314;28;20446;-70
2020/12/31 04:51:06;;;;;;;4.63;3.47;;;;;;;;;;5060619;28;20448;-70
2020/12/31 04:53:33;;;;;;;3.70;3.13;;;;;;;;;;5060863;28;20445;-70
2020/12/31 04:56:01;;;;;;;4.07;3.30;;;;;;;;;;5060357;28;20464;-70
2020/12/31 04:58:29;;;;;;;4.23;3.30;;;;;;;;;;5060561;28;20501;-70
2020/12/31 05:00:56;;;;;;;3.40;3.10;;;;;;;;;;5060245;28;20469;-70
2020/12/31 05:03:23;;;;;;;4.63;3.70;;;;;;;;;;5060596;28;20493;-68
2020/12/31 05:05:53;;;;;;;4.67;3.13;;;;;;;;;;5062848;28;20453;-70
2020/12/31 05:08:25;;;;;;;6.53;3.27;;;;;;;;;;5069201;28;20460;-70
2020/12/31 05:10:53;;;;;;;4.13;3.23;;;;;;;;;;5068418;28;20432;-69
2020/12/31 05:13:20;;;;;;;3.73;2.90;;;;;;;;;;5058969;28;20449;-69
2020/12/31 05:15:48;;;;;;;4.20;3.00;;;;;;;;;;5058825;28;20456;-70
2020/12/31 05:18:22;;;;;;;4.73;2.63;;;;;;;;;;5058817;28;21919;-70
2020/12/31 05:20:49;;;;;;;5.23;2.83;;;;;;;;;;5057250;28;20446;-70
2020/12/31 05:23:18;;;;;;;6.20;2.70;;;;;;;;;;5058518;28;20548;-69
2020/12/31 05:25:45;;;;;;;4.10;2.93;;;;;;;;;;5061374;28;20467;-70
2020/12/31 05:28:23;;;;;;;2.97;2.47;;;;;;;;;;5063895;28;20842;-69
2020/12/31 05:30:52;;;;;;;3.50;2.77;;;;;;;;;;5060024;28;20445;-70
2020/12/31 05:33:26;;;;;;;3.00;2.43;;;;;;;;;;5059798;28;20487;-70
2020/12/31 05:35:53;;;;;;;3.83;3.03;;;;;;;;;;5059557;28;20885;-70
2020/12/31 05:38:20;;;;;;;3.40;2.50;;;;;;;;;;5059536;28;20469;-69
2020/12/31 05:40:58;;;;;;;2.80;2.40;;;;;;;;;;5059677;28;20462;-69
2020/12/31 05:43:25;;;;;;;4.13;2.23;;;;;;;;;;5059430;28;20487;-70
2020/12/31 05:46:04;;;;;;;2.80;2.20;;;;;;;;;;5059503;28;20574;-69
2020/12/31 05:48:31;;;;;;;4.37;2.50;;;;;;;;;;5059833;28;20506;-69
2020/12/31 05:50:58;;;;;;;2.93;2.27;;;;;;;;;;5059265;28;20825;-70
2020/12/31 05:53:27;;;;;;;2.43;2.23;;;;;;;;;;5059703;28;20444;-70
2020/12/31 05:55:55;;;;;;;3.03;2.10;;;;;;;;;;5059448;28;20552;-69
2020/12/31 05:58:23;;;;;;;2.67;2.23;;;;;;;;;;5059449;28;20889;-69
2020/12/31 06:00:59;;;;;;;2.40;1.90;;;;;;;;;;5059207;28;20929;-69
2020/12/31 06:03:35;;;;;;;2.83;2.47;;;;;;;;;;5059257;28;21083;-70
2020/12/31 06:06:06;;;;;;;2.47;2.00;;;;;;;;;;5059207;28;20497;-69
2020/12/31 06:08:33;;;;;;;5.87;2.73;;;;;;;;;;5059145;28;20532;-69
2020/12/31 06:11:01;;;;;;;2.70;2.13;;;;;;;;;;5059104;28;20528;-69
2020/12/31 06:13:37;;;;;;;3.03;2.17;;;;;;;;;;5059024;28;20452;-69
2020/12/31 06:16:04;;;;;;;4.23;2.77;;;;;;;;;;5059223;28;20473;-69
2020/12/31 06:18:33;;;;;;;1.90;1.80;;;;;;;;;;5059049;28;20434;-69
2020/12/31 06:21:00;;;;;;;2.73;2.40;;;;;;;;;;5058967;28;21012;-69
2020/12/31 06:23:35;;;;;;;4.00;2.80;;;;;;;;;;5058852;28;20492;-69
2020/12/31 06:26:07;;;;;;;2.27;2.10;;;;;;;;;;5058770;28;20449;-69
2020/12/31 06:28:34;;;;;;;2.87;2.20;;;;;;;;;;5058754;28;20453;-69
2020/12/31 06:31:01;;;;;;;4.10;1.97;;;;;;;;;;5058918;28;20453;-69
2020/12/31 06:33:31;;;;;;;2.10;1.97;;;;;;;;;;5058870;28;20442;-69
2020/12/31 06:36:00;;;;;;;2.47;2.27;;;;;;;;;;5058594;28;20540;-70
2020/12/31 06:38:36;;;;;;;2.10;1.90;;;;;;;;;;5057307;28;20501;-69
2020/12/31 06:41:04;;;;;;;3.50;2.40;;;;;;;;;;5054574;28;20441;-69
2020/12/31 06:43:35;;;;;;;2.87;2.13;;;;;;;;;;5058570;28;20535;-69
2020/12/31 06:46:16;;;;;;;2.37;2.00;;;;;;;;;;5058391;28;20613;-69
2020/12/31 06:48:43;;;;;;;5.63;2.33;;;;;;;;;;5058671;28;20536;-69
2020/12/31 06:51:11;;;;;;;2.33;2.13;;;;;;;;;;5058384;28;20962;-69
2020/12/31 06:53:39;;;;;;;2.20;2.00;;;;;;;;;;5058319;28;20532;-69
2020/12/31 06:56:07;;;;;;;2.10;1.90;;;;;;;;;;5058373;28;20472;-69
2020/12/31 06:58:34;;;;;;;2.40;1.97;;;;;;;;;;5058192;28;20545;-69
2020/12/31 07:01:02;;;;;;;2.50;1.93;;;;;;;;;;5058094;28;20448;-69
2020/12/31 07:03:47;;;;;;;1.90;1.70;;;;;;;;;;5058022;28;20503;-69
2020/12/31 07:06:26;;;;;;;1.83;1.73;;;;;;;;;;5058167;28;20449;-69
2020/12/31 07:08:53;;;;;;;2.00;1.80;;;;;;;;;;5046321;28;20460;-70
2020/12/31 07:11:38;;;;;;;2.33;1.70;;;;;;;;;;5057917;28;20970;-70
2020/12/31 07:14:21;;;;;;;2.10;1.87;;;;;;;;;;5058163;28;20498;-69
2020/12/31 07:16:55;;;;;;;2.40;2.20;;;;;;;;;;5057912;28;20457;-70
2020/12/31 07:19:23;;;;;;;2.03;1.80;;;;;;;;;;5057872;28;21147;-70
2020/12/31 07:21:51;;;;;;;2.37;2.17;;;;;;;;;;5054574;28;20485;-70
2020/12/31 07:24:21;;;;;;;3.03;2.33;;;;;;;;;;5057560;28;20994;-70
2020/12/31 07:26:49;;;;;;;2.50;2.07;;;;;;;;;;5057494;28;21007;-69
2020/12/31 07:29:23;;;;;;;3.27;1.97;;;;;;;;;;5057644;28;20440;-69
2020/12/31 07:31:51;;;;;;;3.23;2.30;;;;;;;;;;5057465;28;20433;-69
2020/12/31 07:34:18;;;;;;;2.40;2.13;;;;;;;;;;5056993;28;20461;-69
2020/12/31 07:36:55;;;;;;;2.30;2.00;;;;;;;;;;5057059;28;20469;-69
2020/12/31 07:39:22;;;;;;;3.37;2.40;;;;;;;;;;5055791;28;20445;-70
2020/12/31 07:41:49;;;;;;;2.67;2.13;;;;;;;;;;5054809;28;20968;-73
2020/12/31 07:44:16;;;;;;;2.70;2.13;;;;;;;;;;5057458;28;20468;-72
2020/12/31 07:46:43;;;;;;;3.20;2.50;;;;;;;;;;5057187;28;20851;-70
2020/12/31 07:49:11;;;;;;;2.73;2.50;;;;;;;;;;5058717;28;20449;-72
2020/12/31 07:51:38;;;;;;;2.70;2.20;;;;;;;;;;5056833;28;20868;-71
2020/12/31 07:54:06;;;;;;;6.67;2.47;;;;;;;;;;5056935;28;20436;-71
2020/12/31 07:56:33;;;;;;;4.57;3.40;;;;;;;;;;5057025;28;20445;-71
2020/12/31 07:59:02;;;;;;;3.17;2.70;;;;;;;;;;5054806;28;20464;-72
2020/12/31 08:01:29;;;;;;;3.00;2.23;;;;;;;;;;5056865;28;20477;-72
2020/12/31 08:04:08;;;;;;;3.13;2.00;;;;;;;;;;5056849;28;20588;-72
2020/12/31 08:06:35;;;;;;;2.70;2.27;;;;;;;;;;5056900;28;20500;-72
2020/12/31 08:09:02;;;;;;;3.40;2.37;;;;;;;;;;5057251;28;20445;-72
2020/12/31 08:11:30;;;;;;;3.53;2.57;;;;;;;;;;5057295;28;20453;-72
2020/12/31 08:14:03;;;;;;;2.77;2.40;;;;;;;;;;5056965;28;20471;-72
2020/12/31 08:16:31;;;;;;;2.77;2.20;;;;;;;;;;5057096;28;20962;-71
2020/12/31 08:18:58;;;;;;;3.20;2.70;;;;;;;;;;5057036;28;20517;-72
2020/12/31 08:21:25;;;;;;;3.80;2.17;;;;;;;;;;5056965;28;20541;-71
2020/12/31 08:23:57;;;;;;;1.87;1.77;;;;;;;;;;5056130;28;20987;-71
2020/12/31 08:26:24;;;;;;;3.20;2.40;;;;;;;;;;5056454;28;20512;-71
2020/12/31 08:28:51;;;;;;;3.77;2.27;;;;;;;;;;5054130;28;20556;-71
2020/12/31 08:31:22;;;;;;;2.30;2.10;;;;;;;;;;5052306;28;20484;-71
2020/12/31 08:33:49;;;;;;;3.77;1.97;;;;;;;;;;5053893;28;20469;-71
2020/12/31 08:36:23;;;;;;;3.63;2.07;;;;;;;;;;5054272;28;20443;-73
2020/12/31 08:38:51;;;;;;;2.37;2.10;;;;;;;;;;5054704;28;20437;-73
2020/12/31 08:41:19;;;;;;;2.07;1.87;;;;;;;;;;5055247;28;20539;-73
2020/12/31 08:43:46;;;;;;;4.77;2.40;;;;;;;;;;5054330;28;20476;-73
2020/12/31 08:46:19;;;;;;;2.47;2.10;;;;;;;;;;5055313;28;20430;-73
2020/12/31 08:48:52;;;;;;;2.40;2.00;;;;;;;;;;5054201;28;20450;-74
2020/12/31 08:51:19;;;;;;;2.17;1.97;;;;;;;;;;5055218;28;20441;-73
2020/12/31 08:53:54;;;;;;;2.13;1.87;;;;;;;;;;5055150;28;20447;-73
2020/12/31 08:56:22;;;;;;;3.67;2.13;;;;;;;;;;5053124;28;20457;-73
2020/12/31 08:58:49;;;;;;;3.67;2.50;;;;;;;;;;5055330;28;20517;-73
2020/12/31 09:01:24;;;;;;;2.40;2.20;;;;;;;;;;5054175;28;20908;-73
2020/12/31 09:03:51;;;;;;;2.23;1.80;;;;;;;;;;5058685;28;20507;-73
2020/12/31 09:06:24;;;;;;;2.07;1.70;;;;;;;;;;5058297;28;20444;-73
2020/12/31 09:08:52;;;;;;;2.27;2.10;;;;;;;;;;5057305;28;20433;-73
2020/12/31 09:11:24;;;;;;;2.83;2.00;;;;;;;;;;5058253;28;20466;-73
2020/12/31 09:13:51;;;;;;;3.03;2.10;;;;;;;;;;5058332;28;20472;-72
2020/12/31 09:16:18;;;;;;;2.20;1.93;;;;;;;;;;5055613;28;20541;-73
2020/12/31 09:18:57;;;;;;;1.63;1.53;;;;;;;;;;5057161;28;20453;-73
2020/12/31 09:21:26;;;;;;;7.03;1.90;;;;;;;;;;5057893;28;20816;-73
2020/12/31 09:23:53;;;;;;;2.27;1.80;;;;;;;;;;5058419;28;20483;-71
2020/12/31 09:26:26;;;;;;;2.03;1.73;;;;;;;;;;5056393;28;20503;-72
2020/12/31 09:28:53;;;;;;;2.27;1.50;;;;;;;;;;5058576;28;20453;-71
2020/12/31 09:31:22;;;;;;;4.20;1.80;;;;;;;;;;5058222;28;21008;-71
2020/12/31 09:33:51;;;;;;;6.23;2.00;;;;;;;;;;5057612;28;20446;-71
2020/12/31 09:36:22;;;;;;;1.60;1.50;;;;;;;;;;5057007;28;20887;-72
2020/12/31 09:38:49;;;;;;;1.87;1.57;;;;;;;;;;5017942;28;20448;-73
2020/12/31 09:41:16;;;;;;;1.53;1.43;;;;;;;;;;5017477;28;20440;-72
2020/12/31 09:43:43;;;;;;;2.10;1.90;;;;;;;;;;5018515;28;20479;-72
2020/12/31 09:46:10;;;;;;;1.70;1.60;;;;;;;;;;5015982;28;20471;-73
2020/12/31 09:48:37;;;;;;;2.43;1.30;;;;;;;;;;5018311;28;20463;-72
2020/12/31 09:51:05;;;;;;;1.30;1.20;;;;;;;;;;5017920;28;20805;-72
2020/12/31 09:53:32;;;;;;;1.27;1.10;;;;;;;;;;5016156;28;20454;-72
2020/12/31 09:55:59;;;;;;;1.57;1.37;;;;;;;;;;5016756;28;20491;-72
2020/12/31 09:58:26;;;;;;;1.50;1.40;;;;;;;;;;5017113;28;20471;-72
2020/12/31 10:00:53;;;;;;;1.87;1.33;;;;;;;;;;5016611;28;20535;-73
2020/12/31 10:03:20;;;;;;;2.53;1.63;;;;;;;;;;5017632;28;20483;-73
2020/12/31 10:05:47;;;;;;;1.40;1.30;;;;;;;;;;5016496;28;20882;-72
2020/12/31 10:08:15;;;;;;;1.40;1.30;;;;;;;;;;5019073;28;20530;-72
2020/12/31 10:10:42;;;;;;;1.30;1.20;;;;;;;;;;5015874;28;20888;-70
2020/12/31 10:13:09;;;;;;;1.50;1.00;;;;;;;;;;5013011;28;20531;-69
2020/12/31 10:15:38;;;;;;;1.90;1.30;;;;;;;;;;5012969;28;20481;-69
2020/12/31 10:18:05;;;;;;;1.13;1.10;;;;;;;;;;5016486;28;20837;-69
2020/12/31 10:20:32;;;;;;;1.37;1.27;;;;;;;;;;5015316;28;20494;-69
2020/12/31 10:23:00;;;;;;;1.87;1.40;;;;;;;;;;5013239;28;20578;-72
2020/12/31 10:25:27;;;;;;;1.10;1.00;;;;;;;;;;5018496;28;21054;-71
2020/12/31 10:27:54;;;;;;;3.90;1.57;;;;;;;;;;5008269;28;20800;-71
2020/12/31 10:30:21;;;;;;;2.00;1.10;;;;;;;;;;5018105;28;20470;-71
2020/12/31 10:32:48;;;;;;;0.97;0.90;;;;;;;;;;5019021;28;20458;-71
2020/12/31 10:35:15;;;;;;;1.60;1.10;;;;;;;;;;5018543;28;20475;-72
2020/12/31 10:37:42;;;;;;;1.00;1.00;;;;;;;;;;5041081;28;20468;-71
2020/12/31 10:40:09;;;;;;;1.27;1.17;;;;;;;;;;5058015;28;20476;-72
2020/12/31 10:42:37;;;;;;;0.93;0.90;;;;;;;;;;5058271;28;20530;-71
2020/12/31 10:45:04;;;;;;;1.27;1.13;;;;;;;;;;5058025;28;20517;-71
2020/12/31 10:47:31;;;;;;;1.13;1.13;;;;;;;;;;5055882;28;20441;-71
2020/12/31 10:49:58;;;;;;;1.40;1.13;;;;;;;;;;5057277;28;20457;-71
2020/12/31 10:52:25;;;;;;;1.50;1.27;;;;;;;;;;5058222;28;20453;-71
2020/12/31 10:54:52;;;;;;;1.60;0.97;;;;;;;;;;5057800;28;20461;-75
2020/12/31 10:57:19;;;;;;;3.47;1.20;;;;;;;;;;5058109;28;20429;-72
2020/12/31 10:59:47;;;;;;;1.43;1.03;;;;;;;;;;5057791;28;20461;-71
2020/12/31 11:02:14;;;;;;;0.90;0.80;;;;;;;;;;5057861;28;20503;-71
2020/12/31 11:04:41;;;;;;;1.70;0.90;;;;;;;;;;5057502;28;20826;-72
2020/12/31 11:07:08;;;;;;;1.13;1.00;;;;;;;;;;5057952;28;20448;-71
2020/12/31 11:09:34;;;;;;;1.47;1.10;;;;;;;;;;5055745;28;20444;-72
2020/12/31 11:12:02;;;;;;;2.83;1.33;;;;;;;;;;5058624;28;20442;-73
2020/12/31 11:14:29;;;;;;;3.67;1.10;;;;;;;;;;5057568;28;20454;-71
2020/12/31 11:16:57;;;;;;;1.00;1.00;;;;;;;;;;5056738;28;20449;-71
2020/12/31 11:19:26;;;;;;;0.97;0.97;;;;;;;;;;5055771;28;20524;-71
2020/12/31 11:21:53;;;;;;;1.03;1.00;;;;;;;;;;5056513;28;20438;-71
2020/12/31 11:24:20;;;;;;;1.37;1.00;;;;;;;;;;5056235;28;20516;-71
2020/12/31 11:26:49;;;;;;;1.57;1.30;;;;;;;;;;5057147;28;20444;-71
2020/12/31 11:29:16;;;;;;;1.03;1.00;;;;;;;;;;5057659;28;20552;-71
2020/12/31 11:31:43;;;;;;;1.40;1.00;;;;;;;;;;5057687;28;20484;-71
2020/12/31 11:34:26;;;;;;;1.70;1.20;;;;;;;;;;5057371;28;20457;-71
2020/12/31 11:36:53;;;;;;;0.83;0.83;;;;;;;;;;5057478;28;20485;-71
2020/12/31 11:39:20;;;;;;;2.37;1.00;;;;;;;;;;5057631;28;20958;-71
2020/12/31 11:41:48;;;;;;;1.73;1.00;;;;;;;;;;5057457;28;20453;-71
2020/12/31 11:44:17;;;;;;;2.10;1.10;;;;;;;;;;5057460;28;20489;-71
2020/12/31 11:46:45;;;;;;;1.00;1.00;;;;;;;;;;5057387;28;20457;-71
2020/12/31 11:49:12;;;;;;;1.17;1.07;;;;;;;;;;5057052;28;20886;-71
2020/12/31 11:51:40;;;;;;;1.60;1.00;;;;;;;;;;5057613;28;20440;-71
2020/12/31 11:54:07;;;;;;;2.53;0.93;;;;;;;;;;5057238;28;20519;-71
2020/12/31 11:56:33;;;;;;;1.20;1.10;;;;;;;;;;5057088;28;20544;-71
2020/12/31 11:59:01;;;;;;;1.00;0.90;;;;;;;;;;5057182;28;20459;-71
2020/12/31 12:01:28;;;;;;;1.00;1.00;;;;;;;;;;5057259;28;20448;-71
2020/12/31 12:03:55;;;;;;;1.37;1.27;;;;;;;;;;5056925;28;20481;-71
2020/12/31 12:06:22;;;;;;;1.03;1.00;;;;;;;;;;5056876;28;20536;-71
2020/12/31 12:08:50;;;;;;;0.70;0.70;;;;;;;;;;5057339;28;20480;-71
2020/12/31 12:11:17;;;;;;;1.50;1.00;;;;;;;;;;5057029;28;20662;-71
2020/12/31 12:13:43;;;;;;;2.30;1.30;;;;;;;;;;5057209;28;20442;-71
2020/12/31 12:16:10;;;;;;;1.10;1.10;;;;;;;;;;5057106;28;20690;-71
2020/12/31 12:18:37;;;;;;;3.07;1.10;;;;;;;;;;5056131;28;20209;-71
2020/12/31 12:21:17;;;;;;;1.30;1.20;;;;;;;;;;5054307;28;20662;-72
2020/12/31 12:23:44;;;;;;;1.20;1.10;;;;;;;;;;5056530;28;20488;-72
2020/12/31 12:26:12;;;;;;;1.07;1.07;;;;;;;;;;5056151;28;20472;-73
2020/12/31 12:28:39;;;;;;;1.77;1.20;;;;;;;;;;5056715;28;20314;-73
2020/12/31 12:31:06;;;;;;;1.17;1.07;;;;;;;;;;5056557;28;20437;-73
2020/12/31 12:33:33;;;;;;;1.63;1.20;;;;;;;;;;5053870;28;20205;-73
2020/12/31 12:36:00;;;;;;;3.07;1.60;;;;;;;;;;5056128;28;20518;-72
2020/12/31 12:38:27;;;;;;;1.10;1.00;;;;;;;;;;5059759;28;20265;-73
2020/12/31 12:40:54;;;;;;;0.80;0.80;;;;;;;;;;5060317;28;20455;-73
2020/12/31 12:43:22;;;;;;;0.90;0.90;;;;;;;;;;5059961;28;20487;-72
2020/12/31 12:45:49;;;;;;;2.03;1.47;;;;;;;;;;5060014;28;20453;-73
2020/12/31 12:48:16;;;;;;;1.10;1.10;;;;;;;;;;5064526;28;20528;-73
2020/12/31 12:50:43;;;;;;;1.70;1.13;;;;;;;;;;5067644;28;20643;-72
2020/12/31 12:53:10;;;;;;;1.03;1.00;;;;;;;;;;5069406;28;20445;-72
2020/12/31 12:55:40;;;;;;;2.53;0.93;;;;;;;;;;5069521;28;20835;-73
2020/12/31 12:58:07;;;;;;;1.20;1.03;;;;;;;;;;5068529;28;20969;-73
2020/12/31 13:00:34;;;;;;;0.90;0.90;;;;;;;;;;5066670;28;20453;-73
2020/12/31 13:03:01;;;;;;;1.63;1.00;;;;;;;;;;5069814;28;20493;-73
2020/12/31 13:05:28;;;;;;;1.07;1.03;;;;;;;;;;5067143;28;20538;-73
2020/12/31 13:07:55;;;;;;;4.57;1.80;;;;;;;;;;5066296;28;20709;-73
2020/12/31 13:10:22;;;;;;;1.73;1.30;;;;;;;;;;5068316;28;20840;-72
2020/12/31 13:12:49;;;;;;;3.17;1.23;;;;;;;;;;5067988;28;20482;-72
2020/12/31 13:15:16;;;;;;;2.80;1.10;;;;;;;;;;5067356;28;20797;-72
2020/12/31 13:17:44;;;;;;;1.20;1.10;;;;;;;;;;5067121;28;20955;-73
2020/12/31 13:20:11;;;;;;;1.63;0.90;;;;;;;;;;5067442;28;20199;-72
2020/12/31 13:22:38;;;;;;;1.80;1.30;;;;;;;;;;5068013;28;20445;-73
2020/12/31 13:25:06;;;;;;;1.60;1.50;;;;;;;;;;5067431;28;20482;-72
2020/12/31 13:27:45;;;;;;;2.00;1.07;;;;;;;;;;5068752;28;20434;-72
2020/12/31 13:30:13;;;;;;;1.63;1.00;;;;;;;;;;5062568;28;20573;-72
2020/12/31 13:32:40;;;;;;;1.10;0.87;;;;;;;;;;5066919;28;20297;-72
2020/12/31 13:35:09;;;;;;;1.17;1.00;;;;;;;;;;5066424;28;20218;-72
2020/12/31 13:37:36;;;;;;;1.20;1.10;;;;;;;;;;5068711;28;20231;-72
2020/12/31 13:40:04;;;;;;;3.17;1.50;;;;;;;;;;5067765;28;20202;-72
2020/12/31 13:42:31;;;;;;;0.90;0.90;;;;;;;;;;5067205;28;20447;-72
2020/12/31 13:44:59;;;;;;;1.20;1.10;;;;;;;;;;5064794;28;20773;-72
2020/12/31 13:47:26;;;;;;;4.53;1.30;;;;;;;;;;5069201;28;20525;-72
2020/12/31 13:49:53;;;;;;;0.90;0.90;;;;;;;;;;5066861;28;20529;-72
2020/12/31 13:52:21;;;;;;;1.80;1.47;;;;;;;;;;5062442;28;20805;-72
2020/12/31 13:54:48;;;;;;;1.10;1.10;;;;;;;;;;5067719;28;20788;-72
2020/12/31 13:57:15;;;;;;;0.97;0.93;;;;;;;;;;5061737;28;20258;-72
2020/12/31 13:59:42;;;;;;;1.07;1.00;;;;;;;;;;5058624;28;20456;-72
2020/12/31 14:02:09;;;;;;;2.50;1.30;;;;;;;;;;5059161;28;20282;-72
2020/12/31 14:04:36;;;;;;;2.57;0.90;;;;;;;;;;5058713;28;20737;-71
2020/12/31 14:07:04;;;;;;;1.80;1.63;;;;;;;;;;5059758;28;20332;-72
2020/12/31 14:09:32;;;;;;;2.10;2.00;;;;;;;;;;5059272;28;20225;-72
2020/12/31 14:12:00;;;;;;;1.30;1.20;;;;;;;;;;5057787;28;20434;-71
2020/12/31 14:14:27;;;;;;;1.23;1.13;;;;;;;;;;5057432;28;20314;-71
2020/12/31 14:16:54;;;;;;;2.10;1.40;;;;;;;;;;5057646;28;20219;-71
2020/12/31 14:19:21;;;;;;;1.87;1.00;;;;;;;;;;5058713;28;20882;-71
2020/12/31 14:21:48;;;;;;;1.10;1.00;;;;;;;;;;5058821;28;20278;-72
2020/12/31 14:24:15;;;;;;;1.37;1.13;;;;;;;;;;5058188;28;20227;-71
2020/12/31 14:26:43;;;;;;;1.43;1.20;;;;;;;;;;5058897;28;20205;-72
2020/12/31 14:29:10;;;;;;;1.20;1.10;;;;;;;;;;5059106;28;20215;-72
2020/12/31 14:31:38;;;;;;;1.07;1.07;;;;;;;;;;5058889;28;20206;-72
2020/12/31 14:34:07;;;;;;;1.33;1.23;;;;;;;;;;5058253;28;20457;-72
2020/12/31 14:36:37;;;;;;;1.53;1.10;;;;;;;;;;5058605;28;20230;-72
2020/12/31 14:39:04;;;;;;;1.30;1.20;;;;;;;;;;5058812;28;20221;-72
2020/12/31 14:41:34;;;;;;;2.17;1.20;;;;;;;;;;5058682;28;20221;-72
2020/12/31 14:44:02;;;;;;;1.10;1.00;;;;;;;;;;5058685;28;20318;-72
2020/12/31 14:46:29;;;;;;;1.10;1.07;;;;;;;;;;5058262;28;20234;-72